Time;durP1;ratioP1;P1;durP2;ratioP2;P2;SDS_P1;SDS_P2;PMS_P1;PMS_P2;Temp;Humidity;BMP_temperature;BMP_pressure;BME280_temperature;BME280_humidity;BME280_pressure;Samples;Min_cycle;Max_cycle;Signal;HPM_P1;HPM_P2
2023/05/06 00:01:39;;;;;;;20.15;18.38;;;11.60;99.90;;;;;;4985085;28;20056;-77
2023/05/06 00:04:08;;;;;;;20.05;18.13;;;11.60;99.90;;;;;;4968861;28;20068;-77
2023/05/06 00:06:34;;;;;;;18.75;17.05;;;11.50;99.90;;;;;;4990792;28;20046;-77
2023/05/06 00:09:00;;;;;;;17.63;16.10;;;11.40;99.90;;;;;;4960866;28;20042;-77
2023/05/06 00:11:26;;;;;;;17.33;15.75;;;11.40;99.90;;;;;;5007807;28;20042;-77
2023/05/06 00:13:51;;;;;;;15.95;14.52;;;11.40;99.90;;;;;;4966428;28;21265;-77
2023/05/06 00:16:17;;;;;;;15.55;14.13;;;11.30;99.90;;;;;;5000509;28;20034;-78
2023/05/06 00:18:43;;;;;;;15.00;13.60;;;11.30;99.90;;;;;;4965102;28;20129;-78
2023/05/06 00:21:09;;;;;;;15.77;14.27;;;11.30;99.90;;;;;;4986950;28;20697;-78
2023/05/06 00:23:34;;;;;;;15.50;14.00;;;11.30;99.90;;;;;;4966703;28;20512;-77
2023/05/06 00:26:03;;;;;;;13.23;12.05;;;11.20;99.90;;;;;;4958738;28;20563;-77
2023/05/06 00:28:29;;;;;;;17.30;15.73;;;11.20;99.90;;;;;;4953789;28;20042;-77
2023/05/06 00:30:55;;;;;;;16.95;15.43;;;11.20;99.90;;;;;;4972937;28;20057;-77
2023/05/06 00:33:21;;;;;;;15.77;14.38;;;11.20;99.90;;;;;;4973994;28;20099;-78
2023/05/06 00:35:47;;;;;;;18.92;17.05;;;11.20;99.90;;;;;;4986789;28;20058;-78
2023/05/06 00:38:18;;;;;;;15.25;13.95;;;11.20;99.90;;;;;;4992925;28;20069;-78
2023/05/06 00:40:44;;;;;;;16.75;15.25;;;11.20;99.90;;;;;;4972465;28;20500;-78
2023/05/06 00:43:10;;;;;;;15.48;14.05;;;11.10;99.90;;;;;;5003838;28;20302;-78
2023/05/06 00:45:37;;;;;;;111.55;41.45;;;11.10;99.90;;;;;;4957246;28;20819;-78
2023/05/06 00:48:05;;;;;;;35.35;21.15;;;11.00;99.90;;;;;;4989267;28;20048;-78
2023/05/06 00:50:33;;;;;;;19.33;17.45;;;11.00;99.90;;;;;;5003942;28;20121;-77
2023/05/06 00:53:01;;;;;;;16.45;14.85;;;11.00;99.90;;;;;;4987489;28;20528;-78
2023/05/06 00:55:27;;;;;;;19.40;17.60;;;10.90;99.90;;;;;;4987726;28;20050;-78
2023/05/06 00:57:53;;;;;;;17.45;15.90;;;10.90;99.90;;;;;;4988104;28;20140;-77
2023/05/06 01:00:19;;;;;;;18.58;16.77;;;11.00;99.90;;;;;;4986910;28;20100;-78
2023/05/06 01:02:49;;;;;;;14.38;13.07;;;11.00;99.90;;;;;;4987183;28;20042;-78
2023/05/06 01:05:16;;;;;;;17.63;15.93;;;11.00;99.90;;;;;;4972231;28;20045;-78
2023/05/06 01:07:57;;;;;;;18.77;17.05;;;11.00;99.90;;;;;;4986263;28;20046;-78
2023/05/06 01:10:26;;;;;;;18.30;16.73;;;11.00;99.90;;;;;;5004073;28;20527;-78
2023/05/06 01:13:14;;;;;;;17.90;16.20;;;11.00;99.90;;;;;;4987075;28;20052;-78
2023/05/06 01:15:53;;;;;;;18.33;16.60;;;11.00;99.90;;;;;;4993091;28;20513;-78
2023/05/06 01:18:25;;;;;;;19.35;17.52;;;10.90;99.90;;;;;;4986832;28;20760;-78
2023/05/06 01:20:55;;;;;;;27.75;23.15;;;10.90;99.90;;;;;;4986454;28;20046;-78
2023/05/06 01:23:21;;;;;;;16.88;15.48;;;10.90;99.90;;;;;;4969245;28;20107;-78
2023/05/06 01:25:47;;;;;;;85.20;38.38;;;10.90;99.90;;;;;;4980338;28;20046;-77
2023/05/06 01:28:13;;;;;;;43.28;24.90;;;10.90;99.90;;;;;;4988610;28;20100;-78
2023/05/06 01:30:51;;;;;;;36.20;21.48;;;10.80;99.90;;;;;;4978555;28;20053;-78
2023/05/06 01:33:38;;;;;;;15.77;14.38;;;10.80;99.90;;;;;;4960261;28;20043;-77
2023/05/06 01:36:24;;;;;;;17.20;15.70;;;10.70;99.90;;;;;;4987591;28;20763;-78
2023/05/06 01:39:25;;;;;;;18.63;16.83;;;10.70;99.90;;;;;;4939771;28;20054;-77
2023/05/06 01:41:56;;;;;;;22.05;19.58;;;10.70;99.90;;;;;;4984352;28;20606;-77
2023/05/06 01:44:22;;;;;;;16.52;15.07;;;10.70;99.90;;;;;;4971057;28;20050;-77
2023/05/06 01:46:53;;;;;;;14.90;13.60;;;10.70;99.90;;;;;;4988047;28;20049;-77
2023/05/06 01:49:20;;;;;;;17.63;15.93;;;10.60;99.90;;;;;;4976450;28;20038;-77
2023/05/06 01:51:47;;;;;;;16.40;15.00;;;10.60;99.90;;;;;;5002166;28;20054;-77
2023/05/06 01:54:13;;;;;;;16.42;14.90;;;10.70;99.90;;;;;;4985045;28;20050;-77
2023/05/06 01:56:39;;;;;;;15.80;14.50;;;10.60;99.90;;;;;;4998902;28;20072;-77
2023/05/06 01:59:05;;;;;;;19.83;17.88;;;10.70;99.90;;;;;;4986299;28;20046;-78
2023/05/06 02:01:31;;;;;;;20.02;18.08;;;10.70;99.90;;;;;;5001484;28;20045;-77
2023/05/06 02:03:57;;;;;;;21.58;19.42;;;10.70;99.90;;;;;;5016023;28;20045;-77
2023/05/06 02:06:22;;;;;;;21.15;19.17;;;10.60;99.90;;;;;;4955229;28;20042;-77
2023/05/06 02:08:49;;;;;;;22.77;20.58;;;10.60;99.90;;;;;;4971820;28;20408;-77
2023/05/06 02:11:15;;;;;;;20.75;18.75;;;10.60;99.90;;;;;;4970486;28;20386;-78
2023/05/06 02:13:41;;;;;;;22.83;20.63;;;10.70;99.90;;;;;;4969855;28;20108;-77
2023/05/06 02:16:07;;;;;;;22.33;20.20;;;10.70;99.90;;;;;;4972091;28;20472;-77
2023/05/06 02:18:33;;;;;;;18.77;17.13;;;10.70;99.90;;;;;;4963023;28;20048;-77
2023/05/06 02:21:00;;;;;;;19.67;17.88;;;10.70;99.90;;;;;;4987581;28;20412;-78
2023/05/06 02:23:26;;;;;;;21.15;19.25;;;10.70;99.90;;;;;;4980580;28;20050;-77
2023/05/06 02:25:52;;;;;;;18.30;16.73;;;10.70;99.90;;;;;;4966779;28;20065;-77
2023/05/06 02:28:18;;;;;;;83.50;38.28;;;10.80;99.90;;;;;;4978243;28;20111;-77
2023/05/06 02:30:44;;;;;;;77.20;39.85;;;10.70;99.90;;;;;;4964671;28;20489;-78
2023/05/06 02:33:09;;;;;;;19.77;17.83;;;10.70;99.90;;;;;;4955311;28;20052;-77
2023/05/06 02:35:35;;;;;;;16.33;14.82;;;10.70;99.90;;;;;;4979570;28;20493;-77
2023/05/06 02:38:01;;;;;;;18.23;16.48;;;10.70;99.90;;;;;;4973808;28;20045;-77
2023/05/06 02:40:27;;;;;;;22.50;20.20;;;10.70;99.90;;;;;;4968707;28;20057;-77
2023/05/06 02:42:53;;;;;;;45.85;32.15;;;10.70;99.90;;;;;;4964462;28;20050;-77
2023/05/06 02:45:19;;;;;;;21.05;18.98;;;10.70;99.90;;;;;;4968793;28;20081;-78
2023/05/06 02:47:44;;;;;;;20.08;18.27;;;10.70;99.90;;;;;;4962229;28;20048;-77
2023/05/06 02:50:10;;;;;;;20.95;18.77;;;10.70;99.90;;;;;;4950132;28;20537;-77
2023/05/06 02:52:36;;;;;;;20.92;18.80;;;10.70;99.90;;;;;;4967343;28;20083;-77
2023/05/06 02:55:02;;;;;;;21.55;19.35;;;10.70;99.90;;;;;;4954734;28;20088;-78
2023/05/06 02:57:27;;;;;;;27.98;22.60;;;10.70;99.90;;;;;;4984864;28;20390;-77
2023/05/06 02:59:53;;;;;;;21.23;19.05;;;10.70;99.90;;;;;;4992300;28;20041;-77
2023/05/06 03:02:19;;;;;;;25.90;21.13;;;10.70;99.90;;;;;;4964503;28;20669;-77
2023/05/06 03:04:47;;;;;;;22.52;20.23;;;10.70;99.90;;;;;;4983894;28;20452;-78
2023/05/06 03:07:13;;;;;;;21.70;19.42;;;10.70;99.90;;;;;;5000680;28;20174;-77
2023/05/06 03:09:39;;;;;;;57.17;32.35;;;10.70;99.90;;;;;;4974743;28;20054;-77
2023/05/06 03:12:05;;;;;;;25.63;22.35;;;10.60;99.90;;;;;;4976341;28;20042;-78
2023/05/06 03:14:34;;;;;;;46.08;29.90;;;10.70;99.90;;;;;;4984251;28;20046;-78
2023/05/06 03:17:00;;;;;;;20.08;18.08;;;10.60;99.90;;;;;;4965128;28;20104;-78
2023/05/06 03:19:29;;;;;;;55.97;33.90;;;10.60;99.90;;;;;;4976368;28;20049;-77
2023/05/06 03:21:55;;;;;;;18.42;16.58;;;10.60;99.90;;;;;;4997483;28;20092;-77
2023/05/06 03:24:24;;;;;;;22.30;19.58;;;10.50;99.90;;;;;;4966282;28;20038;-78
2023/05/06 03:26:50;;;;;;;37.00;23.85;;;10.50;99.90;;;;;;4950267;28;20121;-78
2023/05/06 03:29:19;;;;;;;106.18;29.20;;;10.40;99.90;;;;;;4981751;28;20094;-77
2023/05/06 03:31:47;;;;;;;31.83;22.23;;;10.30;99.90;;;;;;4964555;28;20051;-77
2023/05/06 03:34:13;;;;;;;49.72;28.00;;;10.30;99.90;;;;;;4965955;28;20038;-77
2023/05/06 03:36:39;;;;;;;18.13;16.42;;;10.20;99.90;;;;;;4984239;28;20057;-78
2023/05/06 03:39:04;;;;;;;14.77;13.38;;;10.20;99.90;;;;;;4979594;28;20450;-78
2023/05/06 03:41:30;;;;;;;17.05;15.45;;;10.20;99.90;;;;;;4982544;28;20505;-78
2023/05/06 03:43:56;;;;;;;21.17;18.98;;;10.10;99.90;;;;;;4962249;28;20034;-77
2023/05/06 03:46:22;;;;;;;22.08;19.83;;;10.20;99.90;;;;;;4967613;28;20039;-77
2023/05/06 03:48:48;;;;;;;23.95;21.05;;;10.20;99.90;;;;;;4980659;28;20501;-77
2023/05/06 03:51:14;;;;;;;23.85;21.42;;;10.20;99.90;;;;;;4999164;28;20046;-77
2023/05/06 03:53:39;;;;;;;22.33;19.98;;;10.20;99.90;;;;;;4980862;28;20050;-77
2023/05/06 03:56:06;;;;;;;27.42;24.50;;;10.20;99.90;;;;;;4967226;28;20041;-77
2023/05/06 03:58:34;;;;;;;22.73;20.33;;;10.20;99.90;;;;;;4966307;28;20045;-77
2023/05/06 04:01:01;;;;;;;29.13;23.13;;;10.20;99.90;;;;;;4965954;28;20100;-77
2023/05/06 04:03:26;;;;;;;21.70;19.50;;;10.20;99.90;;;;;;4983288;28;20047;-77
2023/05/06 04:05:52;;;;;;;22.88;20.55;;;10.20;99.90;;;;;;4971736;28;20373;-77
2023/05/06 04:08:18;;;;;;;27.30;24.38;;;10.10;99.90;;;;;;4970846;28;20443;-77
2023/05/06 04:10:44;;;;;;;32.80;27.38;;;10.10;99.90;;;;;;4974774;28;20187;-77
2023/05/06 04:13:10;;;;;;;24.75;22.20;;;10.10;99.90;;;;;;4988150;28;20449;-77
2023/05/06 04:15:36;;;;;;;96.53;47.78;;;10.10;99.90;;;;;;4974620;28;20045;-77
2023/05/06 04:18:02;;;;;;;66.88;40.35;;;10.10;99.90;;;;;;4973233;28;20101;-77
2023/05/06 04:20:28;;;;;;;24.52;21.98;;;10.10;99.90;;;;;;4989772;28;20424;-77
2023/05/06 04:22:54;;;;;;;53.85;34.15;;;10.10;99.90;;;;;;4973916;28;20180;-78
2023/05/06 04:25:20;;;;;;;34.38;27.83;;;10.20;99.90;;;;;;5000996;28;20034;-78
2023/05/06 04:27:46;;;;;;;30.55;27.33;;;10.20;99.90;;;;;;4971439;28;20567;-77
2023/05/06 04:30:12;;;;;;;34.22;27.23;;;10.20;99.90;;;;;;4984627;28;20065;-78
2023/05/06 04:32:39;;;;;;;26.10;23.38;;;10.20;99.90;;;;;;4987358;28;20045;-77
2023/05/06 04:35:08;;;;;;;28.63;25.55;;;10.20;99.90;;;;;;4974313;28;20046;-77
2023/05/06 04:37:34;;;;;;;28.13;25.10;;;10.30;99.90;;;;;;4957952;28;20054;-78
2023/05/06 04:40:01;;;;;;;44.53;35.20;;;10.30;99.90;;;;;;4987521;28;20054;-78
2023/05/06 04:42:27;;;;;;;27.88;25.10;;;10.30;99.90;;;;;;4988438;28;20519;-78
2023/05/06 04:44:53;;;;;;;45.72;32.22;;;10.30;99.90;;;;;;4964462;28;20046;-77
2023/05/06 04:47:18;;;;;;;30.15;26.80;;;10.40;99.90;;;;;;4995508;28;20073;-77
2023/05/06 04:49:47;;;;;;;30.23;27.13;;;10.30;99.90;;;;;;4973254;28;20409;-78
2023/05/06 04:52:13;;;;;;;27.00;24.30;;;10.40;99.90;;;;;;4985097;28;20127;-78
2023/05/06 04:54:42;;;;;;;30.23;27.05;;;10.40;99.90;;;;;;4988930;28;20050;-77
2023/05/06 04:57:08;;;;;;;28.45;25.45;;;10.40;99.90;;;;;;5015853;28;20595;-78
2023/05/06 04:59:33;;;;;;;32.15;28.73;;;10.40;99.90;;;;;;4958476;28;20045;-78
2023/05/06 05:01:59;;;;;;;31.58;28.38;;;10.30;99.90;;;;;;4971396;28;20057;-78
2023/05/06 05:04:25;;;;;;;32.55;29.20;;;10.40;99.90;;;;;;4988205;28;20049;-78
2023/05/06 05:06:51;;;;;;;31.90;28.63;;;10.40;99.90;;;;;;4971729;28;20056;-77
2023/05/06 05:09:17;;;;;;;34.17;30.48;;;10.40;99.90;;;;;;4985547;28;20050;-77
2023/05/06 05:11:43;;;;;;;32.38;29.15;;;10.40;99.90;;;;;;4965175;28;20095;-77
2023/05/06 05:14:09;;;;;;;30.75;27.73;;;10.50;99.90;;;;;;4972038;28;20045;-78
2023/05/06 05:16:34;;;;;;;29.63;26.73;;;10.50;99.90;;;;;;4983751;28;20043;-77
2023/05/06 05:19:00;;;;;;;32.55;29.02;;;10.60;99.90;;;;;;4967335;28;20030;-77
2023/05/06 05:21:26;;;;;;;35.60;31.80;;;10.60;99.90;;;;;;5000393;28;21095;-78
2023/05/06 05:23:52;;;;;;;38.58;34.50;;;10.70;99.90;;;;;;4950912;28;20127;-78
2023/05/06 05:26:18;;;;;;;36.55;32.63;;;10.80;99.90;;;;;;4983668;28;20054;-77
2023/05/06 05:28:46;;;;;;;44.25;37.65;;;10.90;99.90;;;;;;4970630;28;20042;-77
2023/05/06 05:31:12;;;;;;;39.67;34.80;;;10.90;99.90;;;;;;4969608;28;20042;-77
2023/05/06 05:33:38;;;;;;;37.70;32.45;;;10.90;99.90;;;;;;4969230;28;20058;-78
2023/05/06 05:36:04;;;;;;;39.75;35.42;;;11.00;99.90;;;;;;4966830;28;20522;-77
2023/05/06 05:38:30;;;;;;;43.45;37.40;;;11.10;99.90;;;;;;4964365;28;20141;-77
2023/05/06 05:40:56;;;;;;;41.22;36.40;;;11.20;99.90;;;;;;4984331;28;20181;-78
2023/05/06 05:43:24;;;;;;;40.38;35.97;;;11.20;99.90;;;;;;4966277;28;20133;-77
2023/05/06 05:45:53;;;;;;;44.65;35.55;;;11.30;99.90;;;;;;4968900;28;20050;-77
2023/05/06 05:48:19;;;;;;;40.30;35.30;;;11.30;99.90;;;;;;4961716;28;20108;-77
2023/05/06 05:50:45;;;;;;;39.97;35.75;;;11.40;99.90;;;;;;4968192;28;20049;-78
2023/05/06 05:53:10;;;;;;;40.17;35.83;;;11.50;99.90;;;;;;4962108;28;20085;-78
2023/05/06 05:55:36;;;;;;;38.10;33.67;;;11.50;99.90;;;;;;4956001;28;20050;-78
2023/05/06 05:58:02;;;;;;;40.15;35.78;;;11.60;99.90;;;;;;4975164;28;20038;-78
2023/05/06 06:00:28;;;;;;;41.00;34.38;;;11.70;99.90;;;;;;4968156;28;20042;-77
2023/05/06 06:02:53;;;;;;;36.40;32.63;;;11.80;99.90;;;;;;4999321;28;20125;-77
2023/05/06 06:05:19;;;;;;;36.70;32.70;;;11.90;99.90;;;;;;4961646;28;20064;-77
2023/05/06 06:07:46;;;;;;;35.33;31.75;;;12.00;99.90;;;;;;4983756;28;20452;-75
2023/05/06 06:10:12;;;;;;;32.60;29.23;;;12.10;99.90;;;;;;4966475;28;20050;-76
2023/05/06 06:12:38;;;;;;;49.80;40.60;;;12.30;99.90;;;;;;4978800;28;20066;-76
2023/05/06 06:15:04;;;;;;;30.67;27.52;;;12.40;99.90;;;;;;4964856;28;20043;-76
2023/05/06 06:17:30;;;;;;;29.60;26.55;;;12.50;99.90;;;;;;4990306;28;20547;-77
2023/05/06 06:19:57;;;;;;;30.83;27.83;;;12.60;99.90;;;;;;4981293;28;20457;-77
2023/05/06 06:22:23;;;;;;;64.22;43.90;;;12.60;99.90;;;;;;4966795;28;20052;-76
2023/05/06 06:24:52;;;;;;;32.90;29.45;;;12.70;99.90;;;;;;4981422;28;20121;-77
2023/05/06 06:27:18;;;;;;;37.53;33.58;;;12.70;99.90;;;;;;4962604;28;20046;-77
2023/05/06 06:29:48;;;;;;;28.70;25.90;;;12.80;99.90;;;;;;4982624;28;20046;-77
2023/05/06 06:32:13;;;;;;;28.93;26.10;;;12.80;99.90;;;;;;4979475;28;20301;-77
2023/05/06 06:34:39;;;;;;;24.60;22.10;;;12.80;99.90;;;;;;4987915;28;20405;-76
2023/05/06 06:37:05;;;;;;;22.00;19.92;;;12.80;99.90;;;;;;4979928;28;20046;-77
2023/05/06 06:39:31;;;;;;;33.47;29.90;;;12.90;99.90;;;;;;4984949;28;20054;-76
2023/05/06 06:41:57;;;;;;;22.60;20.50;;;12.80;99.90;;;;;;4976282;28;20564;-76
2023/05/06 06:44:23;;;;;;;22.70;20.60;;;12.80;99.90;;;;;;4967604;28;20035;-76
2023/05/06 06:46:48;;;;;;;20.50;18.50;;;12.80;99.90;;;;;;4966885;28;20093;-76
2023/05/06 06:49:15;;;;;;;19.58;17.73;;;12.80;99.90;;;;;;4999886;28;20046;-77
2023/05/06 06:51:41;;;;;;;19.25;17.45;;;12.80;99.90;;;;;;4982897;28;20046;-75
2023/05/06 06:54:06;;;;;;;19.42;17.73;;;12.80;99.90;;;;;;4982892;28;20042;-77
2023/05/06 06:56:32;;;;;;;19.20;17.23;;;12.80;99.90;;;;;;4962537;28;20121;-77
2023/05/06 06:58:58;;;;;;;19.70;17.90;;;12.80;99.90;;;;;;4975587;28;20053;-77
2023/05/06 07:01:24;;;;;;;19.23;17.25;;;12.90;99.90;;;;;;4980290;28;20046;-77
2023/05/06 07:03:50;;;;;;;19.38;17.58;;;12.90;99.90;;;;;;4984178;28;20053;-77
2023/05/06 07:06:19;;;;;;;19.85;17.95;;;13.00;99.90;;;;;;4966587;28;20410;-76
2023/05/06 07:08:44;;;;;;;21.50;19.50;;;13.00;99.90;;;;;;4982195;28;20188;-76
2023/05/06 07:11:11;;;;;;;20.48;18.38;;;13.00;99.90;;;;;;4953378;28;20380;-76
2023/05/06 07:13:37;;;;;;;20.15;18.25;;;13.10;99.90;;;;;;4975918;28;20043;-77
2023/05/06 07:16:02;;;;;;;20.73;18.70;;;13.10;99.90;;;;;;5011435;28;20516;-77
2023/05/06 07:18:28;;;;;;;19.40;17.58;;;13.10;99.90;;;;;;4981901;28;20069;-76
2023/05/06 07:20:54;;;;;;;21.50;19.38;;;13.10;99.90;;;;;;4980305;28;20049;-77
2023/05/06 07:23:20;;;;;;;21.40;19.45;;;13.10;99.90;;;;;;4980726;28;20046;-76
2023/05/06 07:25:48;;;;;;;19.95;18.08;;;13.10;99.90;;;;;;4994642;28;20058;-75
2023/05/06 07:28:14;;;;;;;20.50;18.50;;;13.10;99.90;;;;;;4964028;28;20041;-75
2023/05/06 07:30:40;;;;;;;22.23;20.13;;;13.20;99.90;;;;;;4981752;28;20493;-76
2023/05/06 07:33:06;;;;;;;21.52;19.52;;;13.10;99.90;;;;;;4981302;28;20045;-76
2023/05/06 07:35:32;;;;;;;21.90;19.77;;;13.20;99.90;;;;;;4981112;28;20046;-76
2023/05/06 07:37:58;;;;;;;20.75;18.75;;;13.30;99.90;;;;;;4977994;28;20085;-76
2023/05/06 07:40:24;;;;;;;18.67;16.98;;;13.40;99.90;;;;;;4969294;28;20049;-77
2023/05/06 07:42:49;;;;;;;18.85;17.05;;;13.50;99.90;;;;;;4987264;28;20042;-76
2023/05/06 07:45:15;;;;;;;17.00;15.27;;;13.70;99.90;;;;;;4965655;28;20329;-78
2023/05/06 07:47:41;;;;;;;16.90;15.30;;;13.80;99.90;;;;;;4966041;28;20054;-79
2023/05/06 07:50:07;;;;;;;17.48;15.77;;;14.10;99.90;;;;;;4952013;28;20050;-79
2023/05/06 07:52:33;;;;;;;18.13;16.45;;;14.30;99.90;;;;;;4985349;28;20378;-76
2023/05/06 07:54:59;;;;;;;18.05;16.30;;;14.50;99.90;;;;;;4984273;28;20489;-77
2023/05/06 07:57:25;;;;;;;18.67;16.67;;;14.70;99.90;;;;;;4969683;28;20061;-78
2023/05/06 07:59:54;;;;;;;17.45;15.65;;;14.90;99.90;;;;;;4986470;28;20075;-76
2023/05/06 08:02:23;;;;;;;18.40;16.42;;;15.10;99.90;;;;;;4971766;28;20035;-76
2023/05/06 08:04:48;;;;;;;19.23;16.58;;;15.30;99.90;;;;;;4986261;28;20042;-77
2023/05/06 08:07:14;;;;;;;17.48;15.70;;;15.50;99.90;;;;;;4969442;28;20060;-75
2023/05/06 08:09:40;;;;;;;18.20;14.90;;;15.60;99.90;;;;;;4983668;28;20131;-77
2023/05/06 08:12:06;;;;;;;20.25;17.20;;;15.60;99.90;;;;;;4986011;28;20046;-76
2023/05/06 08:14:32;;;;;;;18.98;16.55;;;15.60;99.90;;;;;;4982375;28;20049;-76
2023/05/06 08:16:58;;;;;;;20.05;17.00;;;15.50;99.90;;;;;;5017250;28;20528;-75
2023/05/06 08:19:26;;;;;;;22.58;19.10;;;15.50;99.90;;;;;;4985069;28;20038;-77
2023/05/06 08:21:52;;;;;;;23.23;19.23;;;15.60;99.90;;;;;;4986068;28;20382;-76
2023/05/06 08:24:17;;;;;;;20.00;17.20;;;15.80;99.90;;;;;;4985740;28;20049;-76
2023/05/06 08:26:43;;;;;;;19.48;15.57;;;16.00;99.90;;;;;;4986781;28;20498;-76
2023/05/06 08:29:09;;;;;;;15.57;12.90;;;16.10;99.90;;;;;;4985395;28;20050;-76
2023/05/06 08:31:35;;;;;;;15.75;14.07;;;16.20;99.90;;;;;;5002849;28;20153;-78
2023/05/06 08:34:00;;;;;;;17.60;15.50;;;16.40;99.90;;;;;;4982593;28;20050;-79
2023/05/06 08:36:26;;;;;;;11.13;9.45;;;16.50;99.90;;;;;;4983169;28;20764;-75
2023/05/06 08:38:52;;;;;;;10.90;9.75;;;16.60;99.90;;;;;;4988202;28;20046;-75
2023/05/06 08:41:20;;;;;;;14.15;11.80;;;16.70;99.90;;;;;;4990481;28;20660;-75
2023/05/06 08:43:49;;;;;;;14.40;11.77;;;16.80;99.90;;;;;;4983735;28;20050;-75
2023/05/06 08:46:16;;;;;;;13.93;10.93;;;16.90;99.90;;;;;;4985591;28;20057;-75
2023/05/06 08:48:42;;;;;;;12.50;11.18;;;17.00;99.90;;;;;;4983234;28;20505;-78
2023/05/06 08:51:08;;;;;;;13.70;12.27;;;17.00;99.90;;;;;;4985723;28;20383;-76
2023/05/06 08:53:34;;;;;;;14.93;12.65;;;17.20;99.90;;;;;;4980541;28;20068;-77
2023/05/06 08:56:03;;;;;;;14.18;12.68;;;17.30;99.90;;;;;;4985015;28;20608;-75
2023/05/06 08:58:33;;;;;;;14.48;12.93;;;17.40;99.90;;;;;;4983751;28;20049;-76
2023/05/06 09:01:01;;;;;;;12.57;11.27;;;17.50;99.90;;;;;;4983340;28;20043;-77
2023/05/06 09:03:27;;;;;;;12.95;11.30;;;17.60;99.90;;;;;;4985538;28;20034;-78
2023/05/06 09:05:53;;;;;;;12.52;9.85;;;17.80;99.90;;;;;;4968312;28;20057;-77
2023/05/06 09:08:19;;;;;;;14.20;12.43;;;17.80;99.90;;;;;;4982089;28;20058;-77
2023/05/06 09:10:48;;;;;;;12.00;9.95;;;17.90;99.90;;;;;;4985104;28;20042;-76
2023/05/06 09:13:19;;;;;;;11.83;10.60;;;18.00;99.90;;;;;;4989908;28;20035;-76
2023/05/06 09:15:47;;;;;;;13.65;10.13;;;18.10;99.90;;;;;;5016922;28;20452;-76
2023/05/06 09:18:14;;;;;;;11.07;8.55;;;18.20;99.90;;;;;;4973563;28;21870;-77
2023/05/06 09:20:45;;;;;;;9.88;7.93;;;18.30;99.90;;;;;;4981872;28;20042;-75
2023/05/06 09:23:12;;;;;;;8.73;7.15;;;18.40;99.90;;;;;;4981740;28;20053;-76
2023/05/06 09:25:39;;;;;;;12.50;9.80;;;18.40;99.90;;;;;;5002885;28;20053;-75
2023/05/06 09:28:06;;;;;;;12.45;9.13;;;18.50;99.90;;;;;;5000615;28;20042;-75
2023/05/06 09:30:32;;;;;;;11.15;9.48;;;18.60;99.90;;;;;;4964915;28;20508;-77
2023/05/06 09:33:02;;;;;;;13.82;11.02;;;18.60;99.90;;;;;;4983849;28;20071;-75
2023/05/06 09:35:28;;;;;;;11.77;9.75;;;18.60;99.90;;;;;;5003338;28;20897;-76
2023/05/06 09:37:55;;;;;;;13.43;12.02;;;18.60;99.90;;;;;;4979252;28;20088;-76
2023/05/06 09:40:24;;;;;;;15.85;12.70;;;18.70;99.90;;;;;;5001282;28;20045;-76
2023/05/06 09:42:50;;;;;;;13.93;12.40;;;18.70;99.90;;;;;;4989780;28;20200;-76
2023/05/06 09:45:16;;;;;;;14.35;12.02;;;18.60;99.90;;;;;;4962227;28;20314;-77
2023/05/06 09:47:43;;;;;;;13.80;11.30;;;18.70;99.90;;;;;;4972533;28;20058;-77
2023/05/06 09:50:12;;;;;;;14.73;11.88;;;18.70;99.90;;;;;;5002944;28;20046;-76
2023/05/06 09:52:38;;;;;;;13.23;11.82;;;18.80;99.90;;;;;;4986403;28;20428;-75
2023/05/06 09:55:06;;;;;;;15.38;13.27;;;18.80;99.90;;;;;;4969663;28;20053;-76
2023/05/06 09:57:33;;;;;;;13.65;11.27;;;18.90;99.90;;;;;;4987307;28;20054;-76
2023/05/06 10:00:01;;;;;;;13.77;10.95;;;18.90;99.90;;;;;;4983329;28;20053;-76
2023/05/06 10:02:27;;;;;;;13.65;11.20;;;18.90;99.90;;;;;;4985963;28;20456;-76
2023/05/06 10:04:55;;;;;;;14.73;12.27;;;18.90;99.90;;;;;;5004309;28;20045;-76
2023/05/06 10:07:27;;;;;;;12.48;10.63;;;19.00;99.90;;;;;;4988123;28;20109;-77
2023/05/06 10:09:55;;;;;;;13.88;11.52;;;19.00;99.90;;;;;;4959281;28;20355;-77
2023/05/06 10:12:21;;;;;;;13.52;11.60;;;19.00;99.90;;;;;;5002952;28;20042;-76
2023/05/06 10:14:47;;;;;;;14.20;12.38;;;18.90;99.90;;;;;;5002961;28;20057;-79
2023/05/06 10:17:13;;;;;;;20.02;17.13;;;18.90;99.90;;;;;;4974503;28;20049;-77
2023/05/06 10:19:43;;;;;;;19.85;16.33;;;18.80;99.90;;;;;;5002576;28;20396;-77
2023/05/06 10:22:42;;;;;;;17.80;15.65;;;18.90;99.90;;;;;;5000527;28;20228;-77
2023/05/06 10:25:26;;;;;;;19.00;17.10;;;19.10;99.90;;;;;;4966688;28;20477;-77
2023/05/06 10:27:52;;;;;;;14.43;12.32;;;19.30;99.90;;;;;;4977584;28;20096;-76
2023/05/06 10:30:18;;;;;;;14.45;12.43;;;19.50;99.90;;;;;;4995186;28;20053;-75
2023/05/06 10:32:45;;;;;;;13.25;11.02;;;19.60;99.90;;;;;;5000630;28;20048;-76
2023/05/06 10:35:31;;;;;;;13.75;12.32;;;19.70;99.90;;;;;;4987027;28;20045;-76
2023/05/06 10:37:58;;;;;;;13.68;12.27;;;19.90;99.90;;;;;;4976382;28;20649;-77
2023/05/06 10:40:24;;;;;;;14.73;12.82;;;20.00;99.90;;;;;;4968994;28;20078;-76
2023/05/06 10:42:51;;;;;;;12.70;11.40;;;19.90;99.90;;;;;;5000634;28;20034;-76
2023/05/06 10:45:16;;;;;;;14.50;11.07;;;19.90;99.90;;;;;;5004092;28;20492;-76
2023/05/06 10:47:54;;;;;;;14.80;12.45;;;19.70;99.90;;;;;;5000974;28;20045;-76
2023/05/06 10:50:29;;;;;;;12.70;11.40;;;19.60;99.90;;;;;;4999389;28;20046;-77
2023/05/06 10:52:58;;;;;;;13.98;11.93;;;19.30;99.90;;;;;;4996921;28;20073;-77
2023/05/06 10:55:31;;;;;;;14.88;13.25;;;19.00;99.90;;;;;;4998666;28;20176;-77
2023/05/06 10:58:09;;;;;;;16.38;14.68;;;18.90;99.90;;;;;;4986661;28;20128;-77
2023/05/06 11:00:36;;;;;;;16.27;14.10;;;18.70;99.90;;;;;;5002780;28;20136;-77
2023/05/06 11:03:10;;;;;;;16.15;14.27;;;18.60;99.90;;;;;;4963643;28;20079;-77
2023/05/06 11:05:50;;;;;;;14.52;12.35;;;18.50;99.90;;;;;;5002744;28;20184;-76
2023/05/06 11:08:23;;;;;;;;;;;18.40;99.90;;;;;;5017639;28;20035;-75
2023/05/06 11:10:49;;;;;;;14.10;11.32;;;18.30;99.90;;;;;;4971611;28;19921;-75
2023/05/06 11:13:33;;;;;;;12.88;11.10;;;18.20;99.90;;;;;;4980509;28;20041;-76
2023/05/06 11:16:00;;;;;;;11.82;10.48;;;18.30;99.90;;;;;;5005757;28;20045;-76
2023/05/06 11:18:26;;;;;;;11.45;9.70;;;18.20;99.90;;;;;;4986098;28;20049;-75
2023/05/06 11:21:01;;;;;;;13.30;10.88;;;18.20;99.90;;;;;;4990067;28;20056;-76
2023/05/06 11:23:48;;;;;;;12.98;11.68;;;18.30;99.90;;;;;;5006501;28;20038;-75
2023/05/06 11:26:14;;;;;;;12.18;10.93;;;18.30;99.90;;;;;;4987618;28;20092;-76
2023/05/06 11:28:48;;;;;;;12.60;11.40;;;18.40;99.90;;;;;;5006069;28;20042;-77
2023/05/06 11:31:14;;;;;;;13.07;10.77;;;18.50;99.90;;;;;;4988492;28;20426;-77
2023/05/06 11:33:48;;;;;;;12.80;11.60;;;18.70;99.90;;;;;;4983323;28;20447;-75
2023/05/06 11:36:18;;;;;;;13.05;10.85;;;18.90;99.90;;;;;;4959924;28;20489;-77
2023/05/06 11:38:51;;;;;;;13.98;11.40;;;19.00;99.90;;;;;;4988109;28;20054;-76
2023/05/06 11:41:18;;;;;;;12.32;10.43;;;19.10;99.90;;;;;;4972750;28;20401;-76
2023/05/06 11:43:53;;;;;;;11.27;10.02;;;19.20;99.90;;;;;;4991036;28;20046;-77
2023/05/06 11:46:21;;;;;;;12.70;10.85;;;19.20;99.90;;;;;;4989801;28;20056;-76
2023/05/06 11:48:47;;;;;;;13.00;11.80;;;19.30;99.90;;;;;;4973581;28;20153;-78
2023/05/06 11:51:15;;;;;;;12.88;11.68;;;19.30;99.90;;;;;;5008444;28;20050;-77
2023/05/06 11:53:40;;;;;;;13.23;11.80;;;19.30;99.90;;;;;;4984650;28;20124;-78
2023/05/06 11:56:07;;;;;;;13.10;10.02;;;19.30;99.90;;;;;;4983595;28;20073;-82
2023/05/06 11:58:32;;;;;;;12.95;11.65;;;19.30;99.90;;;;;;4970498;28;20054;-76
2023/05/06 12:01:00;;;;;;;12.27;11.00;;;19.30;99.90;;;;;;4971071;28;20056;-76
2023/05/06 12:03:28;;;;;;;13.18;11.88;;;19.30;99.90;;;;;;4986669;28;20034;-76
2023/05/06 12:05:54;;;;;;;13.55;11.70;;;19.20;99.90;;;;;;4972801;28;20040;-76
2023/05/06 12:08:34;;;;;;;14.68;13.02;;;19.10;99.90;;;;;;5004065;28;20853;-78
2023/05/06 12:11:03;;;;;;;14.45;12.82;;;19.00;99.90;;;;;;5014067;28;20696;-79
2023/05/06 12:13:29;;;;;;;12.85;11.60;;;18.90;99.90;;;;;;4988698;28;20041;-77
2023/05/06 12:15:57;;;;;;;13.85;12.40;;;18.90;99.90;;;;;;4966990;28;20050;-76
2023/05/06 12:18:24;;;;;;;14.02;12.52;;;18.80;99.90;;;;;;5003599;28;20643;-72
2023/05/06 12:21:01;;;;;;;15.07;13.38;;;18.70;99.90;;;;;;4985684;28;20404;-79
2023/05/06 12:23:27;;;;;;;13.80;12.50;;;18.70;99.90;;;;;;5014814;28;20042;-77
2023/05/06 12:26:04;;;;;;;15.85;13.88;;;18.70;99.90;;;;;;4987593;28;20045;-77
2023/05/06 12:28:35;;;;;;;14.75;13.35;;;18.70;99.90;;;;;;5001707;28;20085;-76
2023/05/06 12:31:20;;;;;;;15.77;14.20;;;18.70;99.90;;;;;;4981931;28;20523;-78